sensor_id;sensor_type;location;lat;lon;timestamp;P1;durP1;ratioP1;P2;durP2;ratioP2
58446;SDS011;44240;51.840;7.258;2024-02-21T00:00:16;12.73;;;5.57;;
58446;SDS011;44240;51.840;7.258;2024-02-21T00:02:43;13.95;;;6.70;;
58446;SDS011;44240;51.840;7.258;2024-02-21T00:05:10;13.20;;;6.22;;
58446;SDS011;44240;51.840;7.258;2024-02-21T00:07:37;19.90;;;6.90;;
58446;SDS011;44240;51.840;7.258;2024-02-21T00:10:04;15.85;;;7.38;;
58446;SDS011;44240;51.840;7.258;2024-02-21T00:12:31;17.95;;;7.60;;
58446;SDS011;44240;51.840;7.258;2024-02-21T00:14:59;13.75;;;5.53;;
58446;SDS011;44240;51.840;7.258;2024-02-21T00:17:25;13.63;;;6.70;;
58446;SDS011;44240;51.840;7.258;2024-02-21T00:19:52;15.93;;;7.38;;
58446;SDS011;44240;51.840;7.258;2024-02-21T00:22:19;17.95;;;7.00;;
58446;SDS011;44240;51.840;7.258;2024-02-21T00:24:46;20.30;;;8.15;;
58446;SDS011;44240;51.840;7.258;2024-02-21T00:27:13;15.75;;;7.47;;
58446;SDS011;44240;51.840;7.258;2024-02-21T00:29:40;15.10;;;7.18;;
58446;SDS011;44240;51.840;7.258;2024-02-21T00:32:07;14.40;;;6.82;;
58446;SDS011;44240;51.840;7.258;2024-02-21T00:34:34;19.55;;;7.75;;
58446;SDS011;44240;51.840;7.258;2024-02-21T00:37:02;17.30;;;8.25;;
58446;SDS011;44240;51.840;7.258;2024-02-21T00:39:28;16.88;;;8.15;;
58446;SDS011;44240;51.840;7.258;2024-02-21T00:41:55;19.67;;;7.53;;
58446;SDS011;44240;51.840;7.258;2024-02-21T00:44:22;15.02;;;6.78;;
58446;SDS011;44240;51.840;7.258;2024-02-21T00:46:49;18.10;;;7.88;;
58446;SDS011;44240;51.840;7.258;2024-02-21T00:49:16;20.90;;;8.88;;
58446;SDS011;44240;51.840;7.258;2024-02-21T00:51:43;20.67;;;8.48;;
58446;SDS011;44240;51.840;7.258;2024-02-21T00:54:09;20.30;;;8.20;;
58446;SDS011;44240;51.840;7.258;2024-02-21T00:56:36;23.20;;;7.50;;
58446;SDS011;44240;51.840;7.258;2024-02-21T00:59:03;18.50;;;7.60;;
58446;SDS011;44240;51.840;7.258;2024-02-21T01:01:30;17.17;;;8.95;;
58446;SDS011;44240;51.840;7.258;2024-02-21T01:03:57;23.33;;;9.43;;
58446;SDS011;44240;51.840;7.258;2024-02-21T01:06:24;18.58;;;8.07;;
58446;SDS011;44240;51.840;7.258;2024-02-21T01:08:51;22.08;;;9.65;;
58446;SDS011;44240;51.840;7.258;2024-02-21T01:11:17;20.80;;;8.52;;
58446;SDS011;44240;51.840;7.258;2024-02-21T01:13:45;19.95;;;9.30;;
58446;SDS011;44240;51.840;7.258;2024-02-21T01:16:11;18.17;;;9.00;;
58446;SDS011;44240;51.840;7.258;2024-02-21T01:18:38;21.05;;;8.90;;
58446;SDS011;44240;51.840;7.258;2024-02-21T01:21:06;23.90;;;9.93;;
58446;SDS011;44240;51.840;7.258;2024-02-21T01:23:34;19.13;;;9.30;;
58446;SDS011;44240;51.840;7.258;2024-02-21T01:26:02;22.83;;;8.23;;
58446;SDS011;44240;51.840;7.258;2024-02-21T01:28:30;14.10;;;7.30;;
58446;SDS011;44240;51.840;7.258;2024-02-21T01:30:57;18.13;;;7.43;;
58446;SDS011;44240;51.840;7.258;2024-02-21T01:33:24;19.67;;;9.43;;
58446;SDS011;44240;51.840;7.258;2024-02-21T01:35:51;15.13;;;7.50;;
58446;SDS011;44240;51.840;7.258;2024-02-21T01:38:18;17.83;;;7.97;;
58446;SDS011;44240;51.840;7.258;2024-02-21T01:40:45;15.60;;;8.30;;
58446;SDS011;44240;51.840;7.258;2024-02-21T01:43:15;18.30;;;8.13;;
58446;SDS011;44240;51.840;7.258;2024-02-21T01:45:45;14.07;;;6.10;;
58446;SDS011;44240;51.840;7.258;2024-02-21T01:48:16;15.27;;;6.97;;
58446;SDS011;44240;51.840;7.258;2024-02-21T01:50:47;16.40;;;7.13;;
58446;SDS011;44240;51.840;7.258;2024-02-21T01:53:16;17.95;;;7.38;;
58446;SDS011;44240;51.840;7.258;2024-02-21T01:55:49;16.00;;;7.60;;
58446;SDS011;44240;51.840;7.258;2024-02-21T01:58:16;20.52;;;8.48;;
58446;SDS011;44240;51.840;7.258;2024-02-21T02:00:44;16.48;;;7.75;;
58446;SDS011;44240;51.840;7.258;2024-02-21T02:03:13;19.92;;;8.15;;
58446;SDS011;44240;51.840;7.258;2024-02-21T02:05:44;16.95;;;6.93;;
58446;SDS011;44240;51.840;7.258;2024-02-21T02:08:13;20.02;;;7.93;;
58446;SDS011;44240;51.840;7.258;2024-02-21T02:10:41;23.20;;;8.35;;
58446;SDS011;44240;51.840;7.258;2024-02-21T02:13:08;21.45;;;8.63;;
58446;SDS011;44240;51.840;7.258;2024-02-21T02:15:43;17.80;;;7.72;;
58446;SDS011;44240;51.840;7.258;2024-02-21T02:18:11;17.88;;;7.70;;
58446;SDS011;44240;51.840;7.258;2024-02-21T02:20:39;23.70;;;9.10;;
58446;SDS011;44240;51.840;7.258;2024-02-21T02:23:07;19.45;;;7.53;;
58446;SDS011;44240;51.840;7.258;2024-02-21T02:25:36;20.02;;;9.68;;
58446;SDS011;44240;51.840;7.258;2024-02-21T02:28:07;21.23;;;9.07;;
58446;SDS011;44240;51.840;7.258;2024-02-21T02:30:35;20.25;;;8.10;;
58446;SDS011;44240;51.840;7.258;2024-02-21T02:33:05;19.98;;;8.95;;
58446;SDS011;44240;51.840;7.258;2024-02-21T02:35:32;19.58;;;8.38;;
58446;SDS011;44240;51.840;7.258;2024-02-21T02:38:02;18.52;;;8.57;;
58446;SDS011;44240;51.840;7.258;2024-02-21T02:40:30;13.52;;;6.72;;
58446;SDS011;44240;51.840;7.258;2024-02-21T02:42:57;18.52;;;8.10;;
58446;SDS011;44240;51.840;7.258;2024-02-21T02:45:24;17.75;;;8.13;;
58446;SDS011;44240;51.840;7.258;2024-02-21T02:47:53;19.98;;;8.27;;
58446;SDS011;44240;51.840;7.258;2024-02-21T02:50:24;22.50;;;9.48;;
58446;SDS011;44240;51.840;7.258;2024-02-21T02:52:51;18.67;;;8.18;;
58446;SDS011;44240;51.840;7.258;2024-02-21T02:55:19;20.30;;;8.38;;
58446;SDS011;44240;51.840;7.258;2024-02-21T02:57:46;15.02;;;6.93;;
58446;SDS011;44240;51.840;7.258;2024-02-21T03:00:14;17.80;;;8.18;;
58446;SDS011;44240;51.840;7.258;2024-02-21T03:02:42;15.25;;;7.20;;
58446;SDS011;44240;51.840;7.258;2024-02-21T03:05:11;14.57;;;7.03;;
58446;SDS011;44240;51.840;7.258;2024-02-21T03:07:43;16.95;;;7.68;;
58446;SDS011;44240;51.840;7.258;2024-02-21T03:10:10;16.05;;;7.03;;
58446;SDS011;44240;51.840;7.258;2024-02-21T03:12:38;13.95;;;6.45;;
58446;SDS011;44240;51.840;7.258;2024-02-21T03:15:06;15.10;;;6.70;;
58446;SDS011;44240;51.840;7.258;2024-02-21T03:17:33;13.93;;;6.55;;
58446;SDS011;44240;51.840;7.258;2024-02-21T03:20:01;14.82;;;6.25;;
58446;SDS011;44240;51.840;7.258;2024-02-21T03:22:36;16.52;;;7.70;;
58446;SDS011;44240;51.840;7.258;2024-02-21T03:25:04;17.02;;;5.85;;
58446;SDS011;44240;51.840;7.258;2024-02-21T03:27:31;11.75;;;5.43;;
58446;SDS011;44240;51.840;7.258;2024-02-21T03:29:58;13.07;;;6.70;;
58446;SDS011;44240;51.840;7.258;2024-02-21T03:32:25;17.55;;;7.93;;
58446;SDS011;44240;51.840;7.258;2024-02-21T03:34:52;18.42;;;6.57;;
58446;SDS011;44240;51.840;7.258;2024-02-21T03:37:19;19.77;;;7.18;;
58446;SDS011;44240;51.840;7.258;2024-02-21T03:39:46;11.82;;;6.20;;
58446;SDS011;44240;51.840;7.258;2024-02-21T03:42:13;14.23;;;6.18;;
58446;SDS011;44240;51.840;7.258;2024-02-21T03:44:40;14.43;;;6.75;;
58446;SDS011;44240;51.840;7.258;2024-02-21T03:47:06;12.35;;;6.10;;
58446;SDS011;44240;51.840;7.258;2024-02-21T03:49:36;16.05;;;6.53;;
58446;SDS011;44240;51.840;7.258;2024-02-21T03:52:04;15.50;;;6.47;;
58446;SDS011;44240;51.840;7.258;2024-02-21T03:54:31;12.48;;;4.78;;
58446;SDS011;44240;51.840;7.258;2024-02-21T03:56:58;13.68;;;6.40;;
58446;SDS011;44240;51.840;7.258;2024-02-21T03:59:25;15.43;;;6.22;;
58446;SDS011;44240;51.840;7.258;2024-02-21T04:01:52;12.30;;;5.57;;
58446;SDS011;44240;51.840;7.258;2024-02-21T04:04:20;11.15;;;5.97;;
58446;SDS011;44240;51.840;7.258;2024-02-21T04:06:50;15.85;;;7.38;;
58446;SDS011;44240;51.840;7.258;2024-02-21T04:09:17;12.30;;;5.90;;
58446;SDS011;44240;51.840;7.258;2024-02-21T04:11:44;11.32;;;5.53;;
58446;SDS011;44240;51.840;7.258;2024-02-21T04:14:12;12.82;;;5.82;;
58446;SDS011;44240;51.840;7.258;2024-02-21T04:16:38;12.90;;;5.13;;
58446;SDS011;44240;51.840;7.258;2024-02-21T04:19:06;14.55;;;5.28;;
58446;SDS011;44240;51.840;7.258;2024-02-21T04:21:34;13.98;;;6.35;;
58446;SDS011;44240;51.840;7.258;2024-02-21T04:24:02;12.80;;;5.53;;
58446;SDS011;44240;51.840;7.258;2024-02-21T04:26:31;14.98;;;6.45;;
58446;SDS011;44240;51.840;7.258;2024-02-21T04:28:58;14.70;;;5.70;;
58446;SDS011;44240;51.840;7.258;2024-02-21T04:31:26;12.90;;;6.35;;
58446;SDS011;44240;51.840;7.258;2024-02-21T04:33:53;19.85;;;7.22;;
58446;SDS011;44240;51.840;7.258;2024-02-21T04:36:20;11.70;;;5.35;;
58446;SDS011;44240;51.840;7.258;2024-02-21T04:38:46;12.57;;;6.35;;
58446;SDS011;44240;51.840;7.258;2024-02-21T04:41:13;13.23;;;6.18;;
58446;SDS011;44240;51.840;7.258;2024-02-21T04:43:40;12.27;;;5.75;;
58446;SDS011;44240;51.840;7.258;2024-02-21T04:46:07;17.08;;;5.95;;
58446;SDS011;44240;51.840;7.258;2024-02-21T04:48:34;19.02;;;6.18;;
58446;SDS011;44240;51.840;7.258;2024-02-21T04:51:01;11.85;;;5.03;;
58446;SDS011;44240;51.840;7.258;2024-02-21T04:53:27;10.50;;;5.50;;
58446;SDS011;44240;51.840;7.258;2024-02-21T04:55:54;10.57;;;5.93;;
58446;SDS011;44240;51.840;7.258;2024-02-21T04:58:21;11.10;;;5.13;;
58446;SDS011;44240;51.840;7.258;2024-02-21T05:00:48;11.75;;;5.60;;
58446;SDS011;44240;51.840;7.258;2024-02-21T05:03:15;10.95;;;5.93;;
58446;SDS011;44240;51.840;7.258;2024-02-21T05:05:42;11.13;;;5.95;;
58446;SDS011;44240;51.840;7.258;2024-02-21T05:08:09;17.88;;;6.38;;
58446;SDS011;44240;51.840;7.258;2024-02-21T05:10:37;12.43;;;6.45;;
58446;SDS011;44240;51.840;7.258;2024-02-21T05:13:03;13.95;;;6.03;;
58446;SDS011;44240;51.840;7.258;2024-02-21T05:15:31;8.55;;;4.82;;
58446;SDS011;44240;51.840;7.258;2024-02-21T05:17:58;13.10;;;5.47;;
58446;SDS011;44240;51.840;7.258;2024-02-21T05:20:25;14.40;;;5.53;;
58446;SDS011;44240;51.840;7.258;2024-02-21T05:22:52;11.82;;;5.10;;
58446;SDS011;44240;51.840;7.258;2024-02-21T05:25:18;11.05;;;6.03;;
58446;SDS011;44240;51.840;7.258;2024-02-21T05:27:45;12.25;;;6.40;;
58446;SDS011;44240;51.840;7.258;2024-02-21T05:30:12;14.45;;;5.85;;
58446;SDS011;44240;51.840;7.258;2024-02-21T05:32:39;16.00;;;5.35;;
58446;SDS011;44240;51.840;7.258;2024-02-21T05:35:06;13.65;;;5.30;;
58446;SDS011;44240;51.840;7.258;2024-02-21T05:37:33;10.50;;;5.43;;
58446;SDS011;44240;51.840;7.258;2024-02-21T05:40:00;10.25;;;4.72;;
58446;SDS011;44240;51.840;7.258;2024-02-21T05:42:27;9.93;;;5.60;;
58446;SDS011;44240;51.840;7.258;2024-02-21T05:44:54;12.02;;;5.63;;
58446;SDS011;44240;51.840;7.258;2024-02-21T05:47:21;12.65;;;5.07;;
58446;SDS011;44240;51.840;7.258;2024-02-21T05:49:47;9.75;;;4.63;;
58446;SDS011;44240;51.840;7.258;2024-02-21T05:52:14;10.25;;;5.18;;
58446;SDS011;44240;51.840;7.258;2024-02-21T05:54:42;10.75;;;5.82;;
58446;SDS011;44240;51.840;7.258;2024-02-21T05:57:09;12.38;;;6.05;;
58446;SDS011;44240;51.840;7.258;2024-02-21T05:59:37;12.02;;;5.35;;
58446;SDS011;44240;51.840;7.258;2024-02-21T06:02:06;11.82;;;5.53;;
58446;SDS011;44240;51.840;7.258;2024-02-21T06:04:33;12.65;;;5.60;;
58446;SDS011;44240;51.840;7.258;2024-02-21T06:07:00;12.73;;;5.05;;
58446;SDS011;44240;51.840;7.258;2024-02-21T06:09:28;12.18;;;5.65;;
58446;SDS011;44240;51.840;7.258;2024-02-21T06:11:55;10.10;;;5.07;;
58446;SDS011;44240;51.840;7.258;2024-02-21T06:14:22;10.73;;;5.43;;
58446;SDS011;44240;51.840;7.258;2024-02-21T06:16:48;13.23;;;6.20;;
58446;SDS011;44240;51.840;7.258;2024-02-21T06:19:15;13.27;;;5.57;;
58446;SDS011;44240;51.840;7.258;2024-02-21T06:21:42;10.77;;;5.05;;
58446;SDS011;44240;51.840;7.258;2024-02-21T06:24:09;12.55;;;5.75;;
58446;SDS011;44240;51.840;7.258;2024-02-21T06:26:36;14.13;;;5.65;;
58446;SDS011;44240;51.840;7.258;2024-02-21T06:29:03;16.48;;;6.20;;
58446;SDS011;44240;51.840;7.258;2024-02-21T06:31:30;12.68;;;5.70;;
58446;SDS011;44240;51.840;7.258;2024-02-21T06:33:58;12.30;;;5.45;;
58446;SDS011;44240;51.840;7.258;2024-02-21T06:36:25;11.57;;;4.63;;
58446;SDS011;44240;51.840;7.258;2024-02-21T06:38:52;16.00;;;6.13;;
58446;SDS011;44240;51.840;7.258;2024-02-21T06:41:18;15.35;;;5.50;;
58446;SDS011;44240;51.840;7.258;2024-02-21T06:43:46;9.82;;;5.22;;
58446;SDS011;44240;51.840;7.258;2024-02-21T06:46:23;11.88;;;6.15;;
58446;SDS011;44240;51.840;7.258;2024-02-21T06:48:51;12.35;;;5.75;;
58446;SDS011;44240;51.840;7.258;2024-02-21T06:51:18;11.45;;;5.65;;
58446;SDS011;44240;51.840;7.258;2024-02-21T06:53:45;14.63;;;5.68;;
58446;SDS011;44240;51.840;7.258;2024-02-21T06:56:12;11.55;;;5.95;;
58446;SDS011;44240;51.840;7.258;2024-02-21T06:58:38;11.10;;;5.15;;
58446;SDS011;44240;51.840;7.258;2024-02-21T07:01:06;11.90;;;5.13;;
58446;SDS011;44240;51.840;7.258;2024-02-21T07:03:33;12.40;;;5.80;;
58446;SDS011;44240;51.840;7.258;2024-02-21T07:06:00;10.52;;;5.38;;
58446;SDS011;44240;51.840;7.258;2024-02-21T07:08:27;11.52;;;5.05;;
58446;SDS011;44240;51.840;7.258;2024-02-21T07:10:54;12.15;;;6.00;;
58446;SDS011;44240;51.840;7.258;2024-02-21T07:13:21;13.05;;;5.03;;
58446;SDS011;44240;51.840;7.258;2024-02-21T07:15:49;7.95;;;4.22;;
58446;SDS011;44240;51.840;7.258;2024-02-21T07:18:16;15.90;;;6.05;;
58446;SDS011;44240;51.840;7.258;2024-02-21T07:20:43;12.05;;;5.32;;
58446;SDS011;44240;51.840;7.258;2024-02-21T07:23:10;12.73;;;5.03;;
58446;SDS011;44240;51.840;7.258;2024-02-21T07:25:37;12.65;;;4.68;;
58446;SDS011;44240;51.840;7.258;2024-02-21T07:28:04;12.20;;;4.88;;
58446;SDS011;44240;51.840;7.258;2024-02-21T07:30:32;10.93;;;5.45;;
58446;SDS011;44240;51.840;7.258;2024-02-21T07:32:59;11.73;;;5.68;;
58446;SDS011;44240;51.840;7.258;2024-02-21T07:35:26;10.45;;;4.88;;
58446;SDS011;44240;51.840;7.258;2024-02-21T07:37:53;7.95;;;4.25;;
58446;SDS011;44240;51.840;7.258;2024-02-21T07:40:20;11.23;;;4.82;;
58446;SDS011;44240;51.840;7.258;2024-02-21T07:42:47;13.65;;;5.55;;
58446;SDS011;44240;51.840;7.258;2024-02-21T07:45:17;8.88;;;4.20;;
58446;SDS011;44240;51.840;7.258;2024-02-21T07:47:50;11.65;;;4.75;;
58446;SDS011;44240;51.840;7.258;2024-02-21T07:50:17;14.43;;;5.22;;
58446;SDS011;44240;51.840;7.258;2024-02-21T07:52:44;13.57;;;4.38;;
58446;SDS011;44240;51.840;7.258;2024-02-21T07:55:11;13.13;;;5.00;;
58446;SDS011;44240;51.840;7.258;2024-02-21T07:57:37;15.50;;;4.97;;
58446;SDS011;44240;51.840;7.258;2024-02-21T08:00:04;12.23;;;4.60;;
58446;SDS011;44240;51.840;7.258;2024-02-21T08:02:37;9.43;;;4.65;;
58446;SDS011;44240;51.840;7.258;2024-02-21T08:05:04;10.35;;;4.88;;
58446;SDS011;44240;51.840;7.258;2024-02-21T08:07:31;13.82;;;6.10;;
58446;SDS011;44240;51.840;7.258;2024-02-21T08:09:58;11.40;;;4.70;;
58446;SDS011;44240;51.840;7.258;2024-02-21T08:12:25;10.10;;;4.80;;
58446;SDS011;44240;51.840;7.258;2024-02-21T08:14:53;10.27;;;4.55;;
58446;SDS011;44240;51.840;7.258;2024-02-21T08:17:20;10.60;;;4.72;;
58446;SDS011;44240;51.840;7.258;2024-02-21T08:19:46;9.80;;;4.85;;
58446;SDS011;44240;51.840;7.258;2024-02-21T08:22:15;10.48;;;4.32;;
58446;SDS011;44240;51.840;7.258;2024-02-21T08:24:42;10.20;;;4.07;;
58446;SDS011;44240;51.840;7.258;2024-02-21T08:27:09;9.65;;;4.50;;
58446;SDS011;44240;51.840;7.258;2024-02-21T08:29:36;7.20;;;3.75;;
58446;SDS011;44240;51.840;7.258;2024-02-21T08:32:03;11.50;;;4.43;;
58446;SDS011;44240;51.840;7.258;2024-02-21T08:34:30;11.98;;;4.82;;
58446;SDS011;44240;51.840;7.258;2024-02-21T08:37:00;10.95;;;4.65;;
58446;SDS011;44240;51.840;7.258;2024-02-21T08:39:27;14.00;;;5.30;;
58446;SDS011;44240;51.840;7.258;2024-02-21T08:41:56;10.90;;;4.65;;
58446;SDS011;44240;51.840;7.258;2024-02-21T08:44:23;12.45;;;4.72;;
58446;SDS011;44240;51.840;7.258;2024-02-21T08:46:53;9.30;;;4.70;;
58446;SDS011;44240;51.840;7.258;2024-02-21T08:49:20;11.88;;;4.85;;
58446;SDS011;44240;51.840;7.258;2024-02-21T08:51:47;9.50;;;5.18;;
58446;SDS011;44240;51.840;7.258;2024-02-21T08:54:14;6.38;;;3.35;;
58446;SDS011;44240;51.840;7.258;2024-02-21T08:56:41;8.48;;;3.65;;
58446;SDS011;44240;51.840;7.258;2024-02-21T08:59:08;8.43;;;3.90;;
58446;SDS011;44240;51.840;7.258;2024-02-21T09:01:35;9.98;;;4.35;;
58446;SDS011;44240;51.840;7.258;2024-02-21T09:04:02;8.18;;;4.40;;
58446;SDS011;44240;51.840;7.258;2024-02-21T09:06:29;9.38;;;4.70;;
58446;SDS011;44240;51.840;7.258;2024-02-21T09:08:58;11.13;;;4.43;;
58446;SDS011;44240;51.840;7.258;2024-02-21T09:11:25;11.23;;;5.32;;
58446;SDS011;44240;51.840;7.258;2024-02-21T09:13:54;10.43;;;4.57;;
58446;SDS011;44240;51.840;7.258;2024-02-21T09:16:21;9.65;;;4.30;;
58446;SDS011;44240;51.840;7.258;2024-02-21T09:18:49;10.95;;;4.03;;
58446;SDS011;44240;51.840;7.258;2024-02-21T09:21:16;8.25;;;3.95;;
58446;SDS011;44240;51.840;7.258;2024-02-21T09:23:43;9.57;;;2.95;;
58446;SDS011;44240;51.840;7.258;2024-02-21T09:26:11;9.27;;;4.50;;
58446;SDS011;44240;51.840;7.258;2024-02-21T09:28:42;8.15;;;3.45;;
58446;SDS011;44240;51.840;7.258;2024-02-21T09:31:10;8.38;;;3.90;;
58446;SDS011;44240;51.840;7.258;2024-02-21T09:33:37;7.47;;;3.70;;
58446;SDS011;44240;51.840;7.258;2024-02-21T09:36:04;7.07;;;3.40;;
58446;SDS011;44240;51.840;7.258;2024-02-21T09:38:32;7.97;;;4.32;;
58446;SDS011;44240;51.840;7.258;2024-02-21T09:40:59;8.07;;;4.15;;
58446;SDS011;44240;51.840;7.258;2024-02-21T09:43:30;11.45;;;4.38;;
58446;SDS011;44240;51.840;7.258;2024-02-21T09:45:59;7.40;;;4.50;;
58446;SDS011;44240;51.840;7.258;2024-02-21T09:48:30;8.20;;;5.18;;
58446;SDS011;44240;51.840;7.258;2024-02-21T09:51:09;11.18;;;5.18;;
58446;SDS011;44240;51.840;7.258;2024-02-21T09:53:38;9.63;;;4.80;;
58446;SDS011;44240;51.840;7.258;2024-02-21T09:56:10;9.57;;;4.93;;
58446;SDS011;44240;51.840;7.258;2024-02-21T09:58:40;7.90;;;4.68;;
58446;SDS011;44240;51.840;7.258;2024-02-21T10:01:07;8.90;;;4.15;;
58446;SDS011;44240;51.840;7.258;2024-02-21T10:03:51;10.95;;;4.38;;
58446;SDS011;44240;51.840;7.258;2024-02-21T10:06:19;7.28;;;4.15;;
58446;SDS011;44240;51.840;7.258;2024-02-21T10:08:55;10.57;;;5.38;;
58446;SDS011;44240;51.840;7.258;2024-02-21T10:11:23;6.97;;;4.80;;
58446;SDS011;44240;51.840;7.258;2024-02-21T10:13:51;10.85;;;5.95;;
58446;SDS011;44240;51.840;7.258;2024-02-21T10:16:28;12.90;;;6.57;;
58446;SDS011;44240;51.840;7.258;2024-02-21T10:18:55;8.43;;;5.97;;
58446;SDS011;44240;51.840;7.258;2024-02-21T10:21:22;12.15;;;7.30;;
58446;SDS011;44240;51.840;7.258;2024-02-21T10:23:49;13.93;;;7.05;;
58446;SDS011;44240;51.840;7.258;2024-02-21T10:26:19;9.98;;;6.60;;
58446;SDS011;44240;51.840;7.258;2024-02-21T10:28:47;10.98;;;6.55;;
58446;SDS011;44240;51.840;7.258;2024-02-21T10:31:21;7.90;;;5.10;;
58446;SDS011;44240;51.840;7.258;2024-02-21T10:34:01;8.45;;;5.03;;
58446;SDS011;44240;51.840;7.258;2024-02-21T10:36:32;7.47;;;4.95;;
58446;SDS011;44240;51.840;7.258;2024-02-21T10:38:59;10.68;;;4.50;;
58446;SDS011;44240;51.840;7.258;2024-02-21T10:41:26;6.53;;;3.88;;
58446;SDS011;44240;51.840;7.258;2024-02-21T10:43:54;7.20;;;4.60;;
58446;SDS011;44240;51.840;7.258;2024-02-21T10:46:23;7.35;;;3.75;;
58446;SDS011;44240;51.840;7.258;2024-02-21T10:48:56;4.95;;;3.30;;
58446;SDS011;44240;51.840;7.258;2024-02-21T10:51:33;6.72;;;3.70;;
58446;SDS011;44240;51.840;7.258;2024-02-21T10:56:36;8.07;;;3.53;;
58446;SDS011;44240;51.840;7.258;2024-02-21T10:59:06;6.50;;;4.05;;
58446;SDS011;44240;51.840;7.258;2024-02-21T11:01:34;6.80;;;4.35;;
58446;SDS011;44240;51.840;7.258;2024-02-21T11:04:06;8.55;;;4.93;;
58446;SDS011;44240;51.840;7.258;2024-02-21T11:06:38;5.65;;;3.97;;
58446;SDS011;44240;51.840;7.258;2024-02-21T11:09:09;7.93;;;4.50;;
58446;SDS011;44240;51.840;7.258;2024-02-21T11:11:38;9.13;;;4.57;;
58446;SDS011;44240;51.840;7.258;2024-02-21T11:14:10;7.40;;;4.00;;
58446;SDS011;44240;51.840;7.258;2024-02-21T11:16:43;8.10;;;4.60;;
58446;SDS011;44240;51.840;7.258;2024-02-21T11:19:19;6.25;;;4.22;;
58446;SDS011;44240;51.840;7.258;2024-02-21T11:21:51;8.80;;;3.95;;
58446;SDS011;44240;51.840;7.258;2024-02-21T11:24:29;6.15;;;3.85;;
58446;SDS011;44240;51.840;7.258;2024-02-21T11:27:07;5.82;;;3.85;;
58446;SDS011;44240;51.840;7.258;2024-02-21T11:29:44;10.75;;;4.45;;
58446;SDS011;44240;51.840;7.258;2024-02-21T11:32:15;5.90;;;3.53;;
58446;SDS011;44240;51.840;7.258;2024-02-21T11:35:20;7.93;;;3.70;;
58446;SDS011;44240;51.840;7.258;2024-02-21T11:37:45;6.70;;;3.80;;
58446;SDS011;44240;51.840;7.258;2024-02-21T11:40:13;7.38;;;3.28;;
58446;SDS011;44240;51.840;7.258;2024-02-21T11:42:40;5.07;;;3.28;;
58446;SDS011;44240;51.840;7.258;2024-02-21T11:45:07;5.80;;;3.50;;
58446;SDS011;44240;51.840;7.258;2024-02-21T11:47:37;6.65;;;3.25;;
58446;SDS011;44240;51.840;7.258;2024-02-21T11:50:11;6.60;;;3.42;;
58446;SDS011;44240;51.840;7.258;2024-02-21T11:52:42;5.47;;;3.33;;
58446;SDS011;44240;51.840;7.258;2024-02-21T11:55:08;6.20;;;3.20;;
58446;SDS011;44240;51.840;7.258;2024-02-21T11:57:36;6.80;;;3.00;;
58446;SDS011;44240;51.840;7.258;2024-02-21T12:00:16;5.68;;;3.47;;
58446;SDS011;44240;51.840;7.258;2024-02-21T12:02:44;7.10;;;3.05;;
58446;SDS011;44240;51.840;7.258;2024-02-21T12:05:11;5.13;;;3.00;;
58446;SDS011;44240;51.840;7.258;2024-02-21T12:07:40;5.45;;;2.70;;
58446;SDS011;44240;51.840;7.258;2024-02-21T12:10:08;7.25;;;2.92;;
58446;SDS011;44240;51.840;7.258;2024-02-21T12:12:39;4.57;;;2.70;;
58446;SDS011;44240;51.840;7.258;2024-02-21T12:15:06;5.30;;;3.15;;
58446;SDS011;44240;51.840;7.258;2024-02-21T12:17:35;5.32;;;2.38;;
58446;SDS011;44240;51.840;7.258;2024-02-21T12:20:03;4.28;;;2.70;;
58446;SDS011;44240;51.840;7.258;2024-02-21T12:22:38;6.05;;;2.63;;
58446;SDS011;44240;51.840;7.258;2024-02-21T12:25:18;3.53;;;2.65;;
58446;SDS011;44240;51.840;7.258;2024-02-21T12:27:49;5.00;;;2.65;;
58446;SDS011;44240;51.840;7.258;2024-02-21T12:30:16;5.38;;;2.60;;
58446;SDS011;44240;51.840;7.258;2024-02-21T12:32:43;4.55;;;2.67;;
58446;SDS011;44240;51.840;7.258;2024-02-21T12:35:10;4.10;;;2.25;;
58446;SDS011;44240;51.840;7.258;2024-02-21T12:37:37;6.63;;;2.92;;
58446;SDS011;44240;51.840;7.258;2024-02-21T12:40:06;5.57;;;2.63;;
58446;SDS011;44240;51.840;7.258;2024-02-21T12:42:33;7.53;;;3.03;;
58446;SDS011;44240;51.840;7.258;2024-02-21T12:45:01;5.57;;;2.63;;
58446;SDS011;44240;51.840;7.258;2024-02-21T12:47:29;6.22;;;2.90;;
58446;SDS011;44240;51.840;7.258;2024-02-21T12:49:57;5.57;;;2.83;;
58446;SDS011;44240;51.840;7.258;2024-02-21T12:52:24;4.72;;;2.80;;
58446;SDS011;44240;51.840;7.258;2024-02-21T12:54:51;7.68;;;3.10;;
58446;SDS011;44240;51.840;7.258;2024-02-21T12:57:18;6.90;;;2.75;;
58446;SDS011;44240;51.840;7.258;2024-02-21T12:59:45;7.88;;;2.83;;
58446;SDS011;44240;51.840;7.258;2024-02-21T13:02:11;5.22;;;2.70;;
58446;SDS011;44240;51.840;7.258;2024-02-21T13:04:38;5.15;;;2.42;;
58446;SDS011;44240;51.840;7.258;2024-02-21T13:07:07;5.55;;;2.92;;
58446;SDS011;44240;51.840;7.258;2024-02-21T13:09:34;6.63;;;2.67;;
58446;SDS011;44240;51.840;7.258;2024-02-21T13:12:01;6.28;;;2.92;;
58446;SDS011;44240;51.840;7.258;2024-02-21T13:14:28;6.97;;;3.00;;
58446;SDS011;44240;51.840;7.258;2024-02-21T13:16:56;5.20;;;3.08;;
58446;SDS011;44240;51.840;7.258;2024-02-21T13:19:23;6.20;;;2.78;;
58446;SDS011;44240;51.840;7.258;2024-02-21T13:21:50;8.23;;;2.92;;
58446;SDS011;44240;51.840;7.258;2024-02-21T13:24:17;6.45;;;3.10;;
58446;SDS011;44240;51.840;7.258;2024-02-21T13:26:44;7.90;;;2.95;;
58446;SDS011;44240;51.840;7.258;2024-02-21T13:29:11;6.10;;;2.75;;
58446;SDS011;44240;51.840;7.258;2024-02-21T13:31:38;4.85;;;2.60;;
58446;SDS011;44240;51.840;7.258;2024-02-21T13:34:05;5.28;;;2.80;;
58446;SDS011;44240;51.840;7.258;2024-02-21T13:36:35;5.90;;;2.85;;
58446;SDS011;44240;51.840;7.258;2024-02-21T13:39:02;7.82;;;2.85;;
58446;SDS011;44240;51.840;7.258;2024-02-21T13:41:31;5.93;;;2.97;;
58446;SDS011;44240;51.840;7.258;2024-02-21T13:43:58;5.15;;;2.88;;
58446;SDS011;44240;51.840;7.258;2024-02-21T13:46:26;4.35;;;2.80;;
58446;SDS011;44240;51.840;7.258;2024-02-21T13:48:54;7.15;;;2.78;;
58446;SDS011;44240;51.840;7.258;2024-02-21T13:51:33;8.02;;;2.70;;
58446;SDS011;44240;51.840;7.258;2024-02-21T13:54:02;5.70;;;2.90;;
58446;SDS011;44240;51.840;7.258;2024-02-21T13:56:30;5.45;;;2.40;;
58446;SDS011;44240;51.840;7.258;2024-02-21T13:58:58;4.22;;;2.35;;
58446;SDS011;44240;51.840;7.258;2024-02-21T14:01:26;5.72;;;2.20;;
58446;SDS011;44240;51.840;7.258;2024-02-21T14:03:54;6.43;;;2.30;;
58446;SDS011;44240;51.840;7.258;2024-02-21T14:06:21;5.60;;;2.85;;
58446;SDS011;44240;51.840;7.258;2024-02-21T14:08:48;5.75;;;2.17;;
58446;SDS011;44240;51.840;7.258;2024-02-21T14:11:15;8.88;;;2.45;;
58446;SDS011;44240;51.840;7.258;2024-02-21T14:13:41;5.05;;;1.85;;
58446;SDS011;44240;51.840;7.258;2024-02-21T14:16:09;4.70;;;1.98;;
58446;SDS011;44240;51.840;7.258;2024-02-21T14:18:39;5.72;;;1.95;;
58446;SDS011;44240;51.840;7.258;2024-02-21T14:21:10;5.80;;;1.95;;
58446;SDS011;44240;51.840;7.258;2024-02-21T14:23:38;3.83;;;1.92;;
58446;SDS011;44240;51.840;7.258;2024-02-21T14:26:05;5.15;;;1.50;;
58446;SDS011;44240;51.840;7.258;2024-02-21T14:28:32;4.25;;;1.73;;
58446;SDS011;44240;51.840;7.258;2024-02-21T14:31:03;7.78;;;2.28;;
58446;SDS011;44240;51.840;7.258;2024-02-21T14:33:32;8.30;;;1.80;;
58446;SDS011;44240;51.840;7.258;2024-02-21T14:36:00;7.88;;;2.05;;
58446;SDS011;44240;51.840;7.258;2024-02-21T14:38:27;4.15;;;1.58;;
58446;SDS011;44240;51.840;7.258;2024-02-21T14:40:54;4.88;;;2.30;;
58446;SDS011;44240;51.840;7.258;2024-02-21T14:43:21;5.30;;;1.70;;
58446;SDS011;44240;51.840;7.258;2024-02-21T14:45:48;3.22;;;1.75;;
58446;SDS011;44240;51.840;7.258;2024-02-21T14:48:16;6.30;;;2.08;;